Time;durP1;ratioP1;P1;durP2;ratioP2;P2;SDS_P1;SDS_P2;PMS_P1;PMS_P2;Temp;Humidity;BMP_temperature;BMP_pressure;BME280_temperature;BME280_humidity;BME280_pressure;Samples;Min_cycle;Max_cycle;Signal;HPM_P1;HPM_P2
2021/10/08 00:00:15;;;;;;;10.93;7.80;;;;;;;7.50;91.87;102290.66;682246;28;1318;-56
2021/10/08 00:00:37;;;;;;;12.65;8.32;;;;;;;7.47;92.56;102290.53;681151;28;3258;-56
2021/10/08 00:00:57;;;;;;;11.57;7.72;;;;;;;7.46;92.48;102286.19;681227;28;4472;-57
2021/10/08 00:01:18;;;;;;;10.73;7.70;;;;;;;7.43;93.06;102283.44;681057;28;1231;-54
2021/10/08 00:01:38;;;;;;;10.75;7.82;;;;;;;7.43;93.43;102283.44;680910;28;1594;-53
2021/10/08 00:01:59;;;;;;;11.43;7.80;;;;;;;7.43;93.53;102280.84;676497;29;1026;-56
2021/10/08 00:02:19;;;;;;;13.07;8.07;;;;;;;7.53;93.28;102286.38;676447;29;1062;-56
2021/10/08 00:02:40;;;;;;;13.90;7.80;;;;;;;7.62;93.09;102284.97;679489;28;1175;-54
2021/10/08 00:03:01;;;;;;;11.57;7.72;;;;;;;7.63;92.56;102275.44;679480;29;1081;-55
2021/10/08 00:03:21;;;;;;;11.33;8.00;;;;;;;7.58;93.06;102275.28;679043;28;1093;-52
2021/10/08 00:03:42;;;;;;;11.47;7.73;;;;;;;7.57;92.65;102278.72;678819;28;2538;-56
2021/10/08 00:04:02;;;;;;;11.73;7.78;;;;;;;7.54;92.39;102275.13;681483;28;4741;-55
2021/10/08 00:04:23;;;;;;;12.20;8.00;;;;;;;7.56;92.44;102281.25;682025;28;1233;-55
2021/10/08 00:04:43;;;;;;;11.67;7.97;;;;;;;7.62;92.16;102271.94;681007;28;1403;-54
2021/10/08 00:05:04;;;;;;;11.57;7.93;;;;;;;7.62;91.72;102279.75;681549;28;1028;-52
2021/10/08 00:05:24;;;;;;;11.70;7.50;;;;;;;7.61;92.57;102282.31;681337;28;1050;-53
2021/10/08 00:05:45;;;;;;;12.23;7.70;;;;;;;7.55;92.63;102274.31;681217;28;1109;-57
2021/10/08 00:06:05;;;;;;;12.37;7.83;;;;;;;7.57;92.38;102290.84;682049;28;1109;-55
2021/10/08 00:06:26;;;;;;;12.48;7.93;;;;;;;7.55;92.62;102283.00;681756;28;1041;-56
2021/10/08 00:06:47;;;;;;;12.10;7.88;;;;;;;7.56;92.38;102276.97;681161;28;1152;-57
2021/10/08 00:07:07;;;;;;;10.27;7.87;;;;;;;7.56;92.50;102278.66;681235;28;4410;-55
2021/10/08 00:07:27;;;;;;;11.05;7.93;;;;;;;7.53;92.75;102283.78;684443;28;1363;-55
2021/10/08 00:07:48;;;;;;;12.43;8.47;;;;;;;7.45;92.98;102283.53;684239;28;1089;-54
2021/10/08 00:08:08;;;;;;;13.27;8.48;;;;;;;7.42;93.07;102284.31;681270;28;1393;-57
2021/10/08 00:08:29;;;;;;;12.23;7.87;;;;;;;7.37;93.61;102283.25;681492;28;1216;-56
2021/10/08 00:08:49;;;;;;;12.70;8.27;;;;;;;7.34;93.24;102283.16;680720;28;1058;-55
2021/10/08 00:09:10;;;;;;;11.77;8.50;;;;;;;7.29;93.12;102284.69;681894;28;1263;-55
2021/10/08 00:09:30;;;;;;;11.75;8.25;;;;;;;7.26;93.73;102285.47;678799;28;1585;-55
2021/10/08 00:09:51;;;;;;;12.00;8.13;;;;;;;7.25;94.17;102286.28;679258;28;1370;-55
2021/10/08 00:10:12;;;;;;;11.40;8.07;;;;;;;7.23;93.69;102287.09;681410;28;4437;-55
2021/10/08 00:10:32;;;;;;;10.85;7.88;;;;;;;7.20;94.43;102279.16;681370;28;2824;-54
2021/10/08 00:10:53;;;;;;;11.95;8.45;;;;;;;7.21;93.91;102280.94;682569;28;1280;-55
2021/10/08 00:11:14;;;;;;;12.93;8.97;;;;;;;7.24;93.81;102281.03;681750;28;1119;-53
2021/10/08 00:11:34;;;;;;;10.70;8.07;;;;;;;7.23;93.82;102285.38;680840;28;960;-55
2021/10/08 00:11:56;;;;;;;11.73;8.00;;;;;;;7.19;94.46;102287.81;681121;28;1085;-57
2021/10/08 00:12:16;;;;;;;13.38;8.10;;;;;;;7.15;94.65;102282.50;682428;28;1049;-55
2021/10/08 00:12:37;;;;;;;11.45;7.88;;;;;;;7.13;94.57;102286.78;682117;28;1332;-54
2021/10/08 00:12:57;;;;;;;11.13;7.93;;;;;;;7.09;94.98;102286.59;681140;28;4618;-55
2021/10/08 00:13:17;;;;;;;11.60;8.10;;;;;;;7.06;94.97;102281.28;681305;28;3653;-55
2021/10/08 00:13:38;;;;;;;11.83;8.17;;;;;;;7.03;95.14;102286.38;681094;28;1008;-54
2021/10/08 00:13:58;;;;;;;11.20;8.00;;;;;;;7.06;94.95;102282.19;681462;28;1122;-56
2021/10/08 00:14:19;;;;;;;11.57;8.53;;;;;;;7.09;94.55;102282.28;682276;28;1242;-56
2021/10/08 00:14:39;;;;;;;11.15;7.65;;;;;;;7.10;94.27;102281.47;682061;28;977;-57
2021/10/08 00:14:59;;;;;;;11.13;7.60;;;;;;;7.11;94.30;102279.75;682004;28;1045;-58
2021/10/08 00:15:20;;;;;;;11.48;7.80;;;;;;;7.14;94.19;102280.75;681372;28;1056;-56
2021/10/08 00:15:40;;;;;;;11.37;7.70;;;;;;;7.19;93.72;102285.22;681659;28;1057;-56
2021/10/08 00:16:01;;;;;;;11.63;7.97;;;;;;;7.14;93.60;102283.34;681694;28;4373;-58
2021/10/08 00:16:21;;;;;;;11.32;8.20;;;;;;;7.14;93.71;102285.94;681837;28;3247;-57
2021/10/08 00:16:42;;;;;;;11.77;8.23;;;;;;;7.15;94.02;102281.63;680778;28;2562;-55
2021/10/08 00:17:04;;;;;;;12.43;8.40;;;;;;;7.14;94.48;102280.75;681884;28;1002;-57
2021/10/08 00:17:24;;;;;;;11.90;8.57;;;;;;;7.18;93.96;102286.91;681519;28;1394;-56
2021/10/08 00:17:45;;;;;;;11.48;8.02;;;;;;;7.19;93.69;102278.28;683873;28;1054;-57
2021/10/08 00:18:07;;;;;;;12.15;8.15;;;;;;;7.21;93.39;102281.81;684141;28;1759;-58
2021/10/08 00:18:28;;;;;;;12.20;8.25;;;;;;;7.20;93.59;102279.16;681725;28;1161;-57
2021/10/08 00:18:49;;;;;;;11.23;8.20;;;;;;;7.14;93.94;102283.34;678701;28;1086;-53
2021/10/08 00:19:09;;;;;;;11.57;8.35;;;;;;;7.11;93.48;102283.22;676469;28;4387;-57
2021/10/08 00:19:29;;;;;;;10.70;7.80;;;;;;;7.16;93.74;102283.41;676584;29;1243;-57
2021/10/08 00:19:50;;;;;;;11.37;7.70;;;;;;;7.25;93.52;102286.28;675663;29;3303;-56
2021/10/08 00:20:11;;;;;;;11.55;7.70;;;;;;;7.33;93.32;102276.16;675198;29;1162;-56
2021/10/08 00:20:33;;;;;;;11.45;7.72;;;;;;;7.32;92.89;102287.41;679249;29;1368;-53
2021/10/08 00:20:54;;;;;;;11.10;7.57;;;;;;;7.25;93.41;102280.22;678589;29;1393;-55
2021/10/08 00:21:15;;;;;;;10.50;7.85;;;;;;;7.29;93.47;102282.09;679595;29;1062;-58
2021/10/08 00:21:35;;;;;;;11.25;7.75;;;;;;;7.32;92.97;102287.41;679240;28;1017;-57
2021/10/08 00:21:55;;;;;;;11.00;7.27;;;;;;;7.33;93.03;102283.97;678827;28;4508;-56
2021/10/08 00:22:16;;;;;;;10.23;7.90;;;;;;;7.32;92.42;102274.38;681280;28;1149;-55
2021/10/08 00:22:37;;;;;;;11.23;8.37;;;;;;;7.32;93.03;102290.91;681657;28;1182;-57
2021/10/08 00:22:58;;;;;;;11.43;7.88;;;;;;;7.27;92.29;102286.34;681686;28;3951;-53
2021/10/08 00:23:19;;;;;;;11.20;7.80;;;;;;;7.23;93.16;102285.38;681427;28;988;-54
2021/10/08 00:23:39;;;;;;;11.33;7.73;;;;;;;7.22;93.57;102293.13;681627;28;1440;-55
2021/10/08 00:23:59;;;;;;;11.60;8.07;;;;;;;7.27;93.59;102286.34;681902;28;1123;-54
2021/10/08 00:24:22;;;;;;;11.77;7.80;;;;;;;7.33;93.08;102287.44;681659;28;1139;-55
2021/10/08 00:24:42;;;;;;;11.18;7.82;;;;;;;7.28;92.98;102293.31;681092;28;1076;-54
2021/10/08 00:25:03;;;;;;;11.53;7.90;;;;;;;7.18;92.48;102289.53;681740;28;4328;-55
2021/10/08 00:25:23;;;;;;;11.35;8.10;;;;;;;7.16;92.92;102289.47;682412;28;1235;-57
2021/10/08 00:25:44;;;;;;;12.03;8.10;;;;;;;7.16;93.32;102299.00;681290;28;1128;-55
2021/10/08 00:26:05;;;;;;;11.85;7.93;;;;;;;7.15;93.60;102292.03;681322;28;1945;-54
2021/10/08 00:26:25;;;;;;;11.45;7.80;;;;;;;7.14;93.43;102290.25;681064;28;4424;-56
2021/10/08 00:26:45;;;;;;;11.17;7.63;;;;;;;7.14;93.30;102290.25;681267;28;1271;-52
2021/10/08 00:27:06;;;;;;;11.75;8.13;;;;;;;7.13;93.04;102297.16;681600;28;1135;-57
2021/10/08 00:27:26;;;;;;;11.17;8.27;;;;;;;7.11;93.28;102291.00;681695;28;1061;-55
2021/10/08 00:27:47;;;;;;;12.10;8.00;;;;;;;7.08;93.33;102292.63;681342;28;1255;-55
2021/10/08 00:28:07;;;;;;;11.17;7.67;;;;;;;7.09;94.23;102289.19;681422;28;4378;-55
2021/10/08 00:28:28;;;;;;;10.90;7.60;;;;;;;7.15;93.79;102295.50;681156;28;1089;-53
2021/10/08 00:28:48;;;;;;;10.90;7.83;;;;;;;7.18;93.33;102293.84;681674;28;1244;-57
2021/10/08 00:29:09;;;;;;;10.88;7.88;;;;;;;7.22;93.22;102299.19;678918;28;1137;-58
2021/10/08 00:29:30;;;;;;;11.30;7.85;;;;;;;7.20;93.40;102297.38;676734;29;3358;-57
2021/10/08 00:29:50;;;;;;;12.40;8.23;;;;;;;7.18;92.94;102294.72;678428;28;1182;-57
2021/10/08 00:30:11;;;;;;;12.67;8.03;;;;;;;7.18;93.39;102294.72;675838;29;1531;-55
2021/10/08 00:30:31;;;;;;;11.90;7.82;;;;;;;7.14;93.44;102295.44;676136;29;1379;-55
2021/10/08 00:30:51;;;;;;;10.23;7.87;;;;;;;7.08;93.81;102293.50;677463;29;1102;-57
2021/10/08 00:31:12;;;;;;;10.73;8.00;;;;;;;7.05;93.92;102296.00;678987;28;4332;-57
2021/10/08 00:31:33;;;;;;;12.50;8.20;;;;;;;7.02;94.23;102295.91;679107;29;1054;-54
2021/10/08 00:31:53;;;;;;;12.60;8.48;;;;;;;7.03;94.27;102304.59;676312;29;1377;-52
2021/10/08 00:32:13;;;;;;;12.20;8.50;;;;;;;6.99;93.88;102301.88;675886;29;1151;-54
2021/10/08 00:32:34;;;;;;;12.13;8.40;;;;;;;6.95;94.49;102299.09;675561;29;2012;-57
2021/10/08 00:32:54;;;;;;;12.53;8.17;;;;;;;6.91;94.65;102297.22;674264;29;3523;-53
2021/10/08 00:33:15;;;;;;;11.13;7.80;;;;;;;6.86;94.97;102297.06;671858;29;1911;-55
2021/10/08 00:33:36;;;;;;;12.13;7.85;;;;;;;6.81;95.02;102299.50;672162;29;1430;-52
2021/10/08 00:33:57;;;;;;;13.57;8.32;;;;;;;6.76;95.51;102303.63;673348;29;4491;-55
2021/10/08 00:34:17;;;;;;;13.60;8.80;;;;;;;6.73;95.49;102298.31;674184;29;1203;-54
2021/10/08 00:34:38;;;;;;;12.17;8.70;;;;;;;6.73;95.94;102305.22;676069;29;1432;-54
2021/10/08 00:34:58;;;;;;;12.90;8.57;;;;;;;6.73;95.67;102302.63;677749;29;1323;-55
2021/10/08 00:35:19;;;;;;;12.93;8.75;;;;;;;6.70;95.43;102300.81;681719;28;1142;-57
2021/10/08 00:35:39;;;;;;;11.13;8.15;;;;;;;6.71;95.13;102310.34;678589;28;1212;-61
2021/10/08 00:36:00;;;;;;;12.77;8.70;;;;;;;6.73;95.96;102298.31;678657;28;3732;-55
2021/10/08 00:36:20;;;;;;;12.80;8.17;;;;;;;6.78;95.92;102304.59;681888;28;1188;-55
2021/10/08 00:36:40;;;;;;;13.00;8.27;;;;;;;6.79;95.82;102303.72;680705;28;1297;-53
2021/10/08 00:37:01;;;;;;;13.10;8.67;;;;;;;6.75;95.58;102301.84;680856;28;4643;-52
2021/10/08 00:37:21;;;;;;;13.48;8.82;;;;;;;6.73;95.76;102305.22;682276;28;1220;-52
2021/10/08 00:37:41;;;;;;;11.73;8.50;;;;;;;6.71;95.87;102310.34;681855;28;1383;-55
2021/10/08 00:38:07;;;;;;;11.95;8.13;;;;;;;6.73;95.91;102308.72;682053;28;1230;-55
2021/10/08 00:38:27;;;;;;;11.60;8.20;;;;;;;6.80;95.74;102305.50;681173;28;1334;-53
2021/10/08 00:38:52;;;;;;;12.60;8.07;;;;;;;6.85;95.92;102295.28;681698;28;1143;-55
2021/10/08 00:39:13;;;;;;;11.20;7.78;;;;;;;6.94;95.09;102307.75;681667;28;3735;-52
2021/10/08 00:39:33;;;;;;;11.50;7.90;;;;;;;7.05;95.00;102303.81;680757;28;1374;-55
2021/10/08 00:39:54;;;;;;;12.10;8.07;;;;;;;7.11;93.56;102306.63;679005;28;1227;-58
2021/10/08 00:40:14;;;;;;;12.73;7.87;;;;;;;7.16;93.33;102305.06;680863;28;4754;-54
2021/10/08 00:40:36;;;;;;;11.43;7.90;;;;;;;7.15;93.26;102305.91;679953;28;1095;-55
2021/10/08 00:40:57;;;;;;;10.25;7.57;;;;;;;7.14;92.93;102301.56;678646;29;1138;-54
2021/10/08 00:41:18;;;;;;;10.27;7.32;;;;;;;7.16;93.16;102305.06;679440;28;1308;-56
2021/10/08 00:41:38;;;;;;;10.38;7.20;;;;;;;7.16;92.99;102305.06;681453;28;1129;-57
2021/10/08 00:41:59;;;;;;;11.57;7.43;;;;;;;7.18;92.79;102304.25;681568;28;1264;-54
2021/10/08 00:42:22;;;;;;;10.55;7.90;;;;;;;7.16;92.69;102299.88;683171;28;3862;-55
2021/10/08 00:42:46;;;;;;;10.75;7.72;;;;;;;7.11;92.63;102300.53;683418;28;1442;-57
2021/10/08 00:43:08;;;;;;;11.10;7.95;;;;;;;7.05;92.83;102301.22;683039;28;4335;-56
2021/10/08 00:43:29;;;;;;;11.48;8.10;;;;;;;6.98;93.72;102304.44;684091;28;1176;-52
2021/10/08 00:43:49;;;;;;;11.30;8.00;;;;;;;6.95;94.17;102301.69;683942;28;1346;-56
2021/10/08 00:44:12;;;;;;;11.23;8.20;;;;;;;6.92;93.79;102304.19;684437;28;1196;-53
2021/10/08 00:44:32;;;;;;;11.88;8.15;;;;;;;6.88;95.12;102302.31;682027;28;2307;-55
2021/10/08 00:44:53;;;;;;;12.00;7.72;;;;;;;6.84;95.20;102305.63;675512;29;1355;-54
2021/10/08 00:45:14;;;;;;;11.75;8.00;;;;;;;6.80;94.70;102310.72;676732;29;1200;-57
2021/10/08 00:45:36;;;;;;;10.98;7.97;;;;;;;6.82;94.99;102303.84;676416;29;4003;-55
2021/10/08 00:45:56;;;;;;;10.85;7.63;;;;;;;6.85;94.54;102307.41;673050;29;4534;-57
2021/10/08 00:46:17;;;;;;;11.20;7.97;;;;;;;6.87;94.58;102305.72;674155;29;1147;-52
2021/10/08 00:46:39;;;;;;;11.73;7.88;;;;;;;6.90;94.29;102304.13;673240;29;1299;-56
2021/10/08 00:46:59;;;;;;;11.45;7.65;;;;;;;6.89;94.98;102298.88;678807;29;1201;-57
2021/10/08 00:47:19;;;;;;;11.40;7.90;;;;;;;6.90;94.74;102300.66;678677;28;1239;-57
2021/10/08 00:47:40;;;;;;;11.80;8.00;;;;;;;6.92;94.35;102299.91;675286;28;1189;-56
2021/10/08 00:48:06;;;;;;;12.13;8.20;;;;;;;6.97;93.42;102297.44;679843;28;1193;-55
2021/10/08 00:48:27;;;;;;;10.85;7.95;;;;;;;6.98;93.23;102299.22;679145;28;1277;-55
2021/10/08 00:48:52;;;;;;;11.48;7.95;;;;;;;7.01;93.32;102301.06;681818;28;3609;-56
2021/10/08 00:49:12;;;;;;;10.38;7.60;;;;;;;7.03;92.93;102302.84;677465;28;4379;-56
2021/10/08 00:49:33;;;;;;;10.95;7.55;;;;;;;7.01;93.10;102304.53;679843;28;1374;-56
2021/10/08 00:49:53;;;;;;;11.83;8.20;;;;;;;6.98;93.61;102302.69;677887;28;1490;-52
2021/10/08 00:50:13;;;;;;;11.73;8.18;;;;;;;6.94;93.85;102307.75;678473;29;1283;-53
2021/10/08 00:50:36;;;;;;;11.70;7.90;;;;;;;6.93;93.33;102303.38;674262;29;1246;-56
2021/10/08 00:50:57;;;;;;;11.82;7.43;;;;;;;6.93;93.87;102296.44;676793;29;1297;-56
2021/10/08 00:51:19;;;;;;;11.15;7.68;;;;;;;6.96;93.44;102314.78;678761;29;1303;-56
2021/10/08 00:51:39;;;;;;;10.48;7.53;;;;;;;6.96;93.54;102300.88;679187;28;1237;-54
2021/10/08 00:52:00;;;;;;;11.17;7.63;;;;;;;6.95;93.28;102310.41;676338;28;4364;-54
2021/10/08 00:52:20;;;;;;;11.35;7.70;;;;;;;6.97;93.57;102303.53;678719;28;4337;-52
2021/10/08 00:52:41;;;;;;;11.27;7.80;;;;;;;6.91;93.41;102300.72;678249;28;1215;-52
2021/10/08 00:53:02;;;;;;;11.30;7.60;;;;;;;6.84;93.35;102303.03;676092;29;1976;-52
2021/10/08 00:53:22;;;;;;;11.50;7.82;;;;;;;6.82;93.83;102302.97;675976;29;1274;-54
2021/10/08 00:53:42;;;;;;;11.10;7.80;;;;;;;6.80;94.19;102305.50;675613;29;1384;-56
2021/10/08 00:54:03;;;;;;;10.82;7.72;;;;;;;6.80;94.28;102308.09;679074;29;1206;-55
2021/10/08 00:54:23;;;;;;;11.37;7.57;;;;;;;6.78;94.70;102307.19;679167;28;1185;-57
2021/10/08 00:54:44;;;;;;;11.38;7.72;;;;;;;6.77;95.16;102300.22;681164;28;1359;-56
2021/10/08 00:55:05;;;;;;;10.97;8.23;;;;;;;6.73;94.99;102305.22;680203;28;4374;-52
2021/10/08 00:55:25;;;;;;;10.63;8.18;;;;;;;6.73;94.90;102306.13;678352;28;3540;-55
2021/10/08 00:55:49;;;;;;;11.07;7.90;;;;;;;6.70;94.59;102297.31;678723;29;1188;-55
2021/10/08 00:56:09;;;;;;;10.55;7.60;;;;;;;6.73;94.83;102306.13;676453;29;1476;-53
2021/10/08 00:56:31;;;;;;;11.32;7.78;;;;;;;6.76;95.29;102301.03;678905;29;1438;-53
2021/10/08 00:56:53;;;;;;;11.05;7.70;;;;;;;6.79;94.76;102298.53;678071;28;1292;-54
2021/10/08 00:57:15;;;;;;;10.43;7.40;;;;;;;6.82;94.25;102303.84;681488;28;1106;-54
2021/10/08 00:57:35;;;;;;;11.55;7.60;;;;;;;6.89;94.11;102296.28;680274;28;1134;-54
2021/10/08 00:57:56;;;;;;;10.57;7.40;;;;;;;6.95;93.75;102292.19;681274;28;4364;-52
2021/10/08 00:58:19;;;;;;;10.68;7.20;;;;;;;7.03;93.23;102301.97;681391;28;1534;-53
2021/10/08 00:58:42;;;;;;;11.20;7.43;;;;;;;7.05;92.64;102297.72;682503;28;3426;-55
2021/10/08 00:59:04;;;;;;;12.35;7.25;;;;;;;7.09;92.57;102292.69;682212;28;1321;-56
2021/10/08 00:59:26;;;;;;;12.05;7.47;;;;;;;7.12;91.82;102295.41;682119;28;1078;-56
2021/10/08 00:59:48;;;;;;;10.68;7.47;;;;;;;7.12;91.81;102297.13;679880;28;1284;-54
2021/10/08 01:00:09;;;;;;;11.23;7.68;;;;;;;7.10;91.93;102299.66;682980;28;1078;-54
2021/10/08 01:00:29;;;;;;;10.63;7.47;;;;;;;7.08;92.20;102303.03;681362;28;1654;-53
2021/10/08 01:00:51;;;;;;;10.45;7.20;;;;;;;7.10;92.06;102299.66;681187;28;1213;-52
2021/10/08 01:01:18;;;;;;;9.65;7.03;;;;;;;7.05;92.47;102301.22;681764;28;4340;-52
2021/10/08 01:01:39;;;;;;;10.77;7.82;;;;;;;7.04;92.51;102302.03;679762;28;3295;-56
2021/10/08 01:01:59;;;;;;;10.77;7.77;;;;;;;7.09;92.26;102302.19;681075;28;2160;-52
2021/10/08 01:02:20;;;;;;;9.93;7.47;;;;;;;7.14;91.95;102300.66;682377;28;1270;-55
2021/10/08 01:02:41;;;;;;;11.02;7.88;;;;;;;7.12;92.05;102302.31;683102;28;1492;-56
2021/10/08 01:03:02;;;;;;;10.52;7.43;;;;;;;7.06;92.46;102291.69;683767;28;1268;-55
2021/10/08 01:03:25;;;;;;;10.60;7.53;;;;;;;7.03;92.09;102302.84;684165;28;1062;-56
2021/10/08 01:03:45;;;;;;;10.05;7.13;;;;;;;6.96;92.77;102295.66;680966;28;1200;-52
2021/10/08 01:04:08;;;;;;;11.17;7.40;;;;;;;6.90;93.16;102300.66;680683;28;4807;-55
2021/10/08 01:04:29;;;;;;;11.38;7.57;;;;;;;6.82;93.12;102297.75;682201;28;1169;-56
2021/10/08 01:04:56;;;;;;;11.00;7.67;;;;;;;6.77;92.73;102301.91;682106;28;3184;-53
2021/10/08 01:05:16;;;;;;;11.35;7.65;;;;;;;6.73;93.95;102302.63;681384;28;4113;-56
2021/10/08 01:05:38;;;;;;;12.40;7.82;;;;;;;6.69;94.79;102299.03;678498;28;1414;-54
2021/10/08 01:05:58;;;;;;;11.80;7.97;;;;;;;6.68;94.98;102305.06;680999;28;1185;-57
2021/10/08 01:06:19;;;;;;;11.53;7.43;;;;;;;6.72;94.63;102301.75;679494;28;1676;-56
2021/10/08 01:06:40;;;;;;;10.70;7.40;;;;;;;6.78;94.40;102301.09;678179;28;1395;-53
2021/10/08 01:07:00;;;;;;;10.70;7.30;;;;;;;6.80;94.09;102302.03;678737;28;4576;-54
2021/10/08 01:07:22;;;;;;;11.77;7.60;;;;;;;6.81;94.24;102298.59;676545;28;1453;-55
2021/10/08 01:07:43;;;;;;;10.73;7.38;;;;;;;6.84;94.55;102297.81;680148;28;1271;-55
2021/10/08 01:08:05;;;;;;;10.75;7.50;;;;;;;6.87;93.64;102300.53;676640;28;2119;-56
2021/10/08 01:08:26;;;;;;;10.15;7.72;;;;;;;6.81;94.55;102302.09;677240;28;3372;-54
2021/10/08 01:08:47;;;;;;;11.10;7.53;;;;;;;6.76;94.04;102294.97;677832;28;1496;-53
2021/10/08 01:09:07;;;;;;;9.60;7.00;;;;;;;6.76;94.35;102297.56;673784;29;1211;-51
2021/10/08 01:09:27;;;;;;;9.70;7.10;;;;;;;6.79;94.05;102293.34;674497;29;1403;-52
2021/10/08 01:09:48;;;;;;;9.45;6.82;;;;;;;6.87;93.78;102295.31;676209;29;1142;-53
2021/10/08 01:10:09;;;;;;;9.77;7.00;;;;;;;6.94;93.61;102293.00;678495;28;4577;-56
2021/10/08 01:10:30;;;;;;;9.50;7.10;;;;;;;6.97;92.84;102293.13;679273;28;1623;-53
2021/10/08 01:10:51;;;;;;;10.38;7.43;;;;;;;6.99;92.71;102290.56;681900;28;1315;-53
2021/10/08 01:11:18;;;;;;;10.23;7.15;;;;;;;6.97;92.53;102297.44;680301;28;2261;-55
2021/10/08 01:11:41;;;;;;;9.45;6.97;;;;;;;6.98;92.05;102297.50;677879;28;1242;-56
2021/10/08 01:12:02;;;;;;;9.65;6.95;;;;;;;6.98;92.68;102299.22;678623;29;1222;-54
2021/10/08 01:12:25;;;;;;;10.00;6.90;;;;;;;6.92;92.75;102294.69;678760;29;1471;-55
2021/10/08 01:12:46;;;;;;;10.53;7.60;;;;;;;6.91;93.07;102298.13;678215;28;1329;-53
2021/10/08 01:13:09;;;;;;;11.73;7.47;;;;;;;6.89;93.25;102297.16;680538;28;4558;-56
2021/10/08 01:13:30;;;;;;;11.88;7.32;;;;;;;6.89;93.23;102296.28;681398;28;1247;-56
2021/10/08 01:13:51;;;;;;;10.23;7.35;;;;;;;6.88;93.03;102294.50;681235;28;1296;-57
2021/10/08 01:14:13;;;;;;;10.63;7.32;;;;;;;6.95;93.16;102296.50;678972;28;1781;-54
2021/10/08 01:14:41;;;;;;;10.00;7.18;;;;;;;6.99;92.54;102295.78;675985;29;2024;-56
2021/10/08 01:15:02;;;;;;;10.65;6.80;;;;;;;6.94;92.77;102297.34;674852;29;1387;-55
2021/10/08 01:15:24;;;;;;;10.35;7.40;;;;;;;6.90;92.46;102295.47;675164;29;1119;-56
2021/10/08 01:15:47;;;;;;;10.02;7.25;;;;;;;6.84;92.53;102298.72;677028;28;1610;-55
2021/10/08 01:16:08;;;;;;;10.20;6.93;;;;;;;6.82;92.88;102296.03;677305;28;4632;-55
2021/10/08 01:16:34;;;;;;;10.35;7.45;;;;;;;6.87;92.73;102300.53;678527;28;2661;-56
2021/10/08 01:16:55;;;;;;;10.60;7.40;;;;;;;6.83;93.20;102291.75;679233;28;1144;-56
2021/10/08 01:17:18;;;;;;;10.93;7.45;;;;;;;6.81;93.34;102302.09;680308;28;2835;-54
2021/10/08 01:17:43;;;;;;;10.27;7.30;;;;;;;6.84;93.05;102296.13;680154;28;3894;-53
2021/10/08 01:18:04;;;;;;;10.03;7.17;;;;;;;6.84;93.04;102292.63;681378;28;1379;-57
2021/10/08 01:18:26;;;;;;;10.63;7.40;;;;;;;6.85;92.81;102297.00;681257;28;1460;-53
2021/10/08 01:18:48;;;;;;;11.73;7.30;;;;;;;6.86;92.99;102298.78;680987;28;1244;-55
2021/10/08 01:19:10;;;;;;;11.40;7.63;;;;;;;6.79;92.95;102287.25;680656;28;5532;-55
2021/10/08 01:19:33;;;;;;;10.13;7.35;;;;;;;6.75;93.55;102294.06;681708;28;1560;-52
2021/10/08 01:20:06;;;;;;;10.40;7.47;;;;;;;6.70;93.76;102289.50;678503;28;1279;-54
2021/10/08 01:20:32;;;;;;;9.73;6.88;;;;;;;6.66;94.40;102296.31;679794;28;1777;-52
2021/10/08 01:21:00;;;;;;;10.38;7.30;;;;;;;6.69;94.24;102292.94;679091;28;3662;-56
2021/10/08 01:21:21;;;;;;;10.05;7.00;;;;;;;6.68;94.09;102289.47;679434;28;1456;-55
2021/10/08 01:21:47;;;;;;;10.53;7.27;;;;;;;6.68;94.44;102294.66;678983;28;1375;-56
2021/10/08 01:22:08;;;;;;;10.30;7.38;;;;;;;6.69;94.08;102292.94;680164;28;4502;-56
2021/10/08 01:22:29;;;;;;;11.63;7.65;;;;;;;6.67;94.46;102294.59;678506;29;1390;-57
2021/10/08 01:22:49;;;;;;;10.63;7.17;;;;;;;6.69;94.18;102293.84;675905;29;1339;-53
2021/10/08 01:23:12;;;;;;;10.15;6.88;;;;;;;6.78;94.05;102293.28;676589;29;1034;-54
2021/10/08 01:23:40;;;;;;;9.52;6.78;;;;;;;6.80;92.93;102295.13;676213;29;1232;-54
2021/10/08 01:24:00;;;;;;;9.23;6.78;;;;;;;6.78;92.91;102290.69;675277;29;3181;-54
2021/10/08 01:24:21;;;;;;;9.67;7.07;;;;;;;6.76;93.44;102292.34;678841;29;4091;-56
2021/10/08 01:24:41;;;;;;;10.23;6.90;;;;;;;6.74;93.33;102289.69;672356;29;1586;-54
2021/10/08 01:25:04;;;;;;;10.50;7.07;;;;;;;6.77;93.00;102296.69;674680;29;4341;-57
2021/10/08 01:25:30;;;;;;;10.82;6.93;;;;;;;6.79;93.28;102290.72;676522;29;1162;-57
2021/10/08 01:25:52;;;;;;;9.55;7.05;;;;;;;6.78;92.40;102302.00;675550;29;1442;-56
2021/10/08 01:26:18;;;;;;;9.35;7.00;;;;;;;6.75;93.05;102287.97;675129;29;1307;-54
2021/10/08 01:26:39;;;;;;;9.90;7.10;;;;;;;6.72;92.70;102288.75;677164;28;1395;-55
2021/10/08 01:27:03;;;;;;;9.95;7.10;;;;;;;6.68;93.66;102292.06;676631;29;1242;-52
2021/10/08 01:27:23;;;;;;;10.85;7.20;;;;;;;6.69;93.58;102292.94;675707;29;3324;-55
2021/10/08 01:27:46;;;;;;;10.73;7.03;;;;;;;6.74;93.31;102291.41;675317;29;1368;-55
2021/10/08 01:28:15;;;;;;;10.10;7.10;;;;;;;6.81;92.91;102296.91;676746;29;7021;-56
2021/10/08 01:28:36;;;;;;;9.90;7.15;;;;;;;6.86;92.07;102290.97;680848;28;1937;-53
2021/10/08 01:29:01;;;;;;;10.98;7.57;;;;;;;6.86;92.49;102288.38;675629;29;1339;-56
2021/10/08 01:29:24;;;;;;;10.73;7.30;;;;;;;6.87;91.88;102292.72;675814;29;1618;-55
2021/10/08 01:29:53;;;;;;;10.10;6.95;;;;;;;6.85;92.04;102299.59;677644;29;1254;-54
2021/10/08 01:30:17;;;;;;;9.63;6.82;;;;;;;6.78;92.44;102295.88;678020;28;1272;-52
2021/10/08 01:30:43;;;;;;;10.63;7.30;;;;;;;6.70;92.75;102298.22;674440;29;3808;-55
2021/10/08 01:31:06;;;;;;;10.18;7.10;;;;;;;6.67;92.90;102295.47;674721;29;4376;-55
2021/10/08 01:31:42;;;;;;;10.98;7.13;;;;;;;6.59;93.37;102294.31;678335;28;1239;-54
2021/10/08 01:32:03;;;;;;;10.60;6.82;;;;;;;6.56;94.44;102294.19;675142;29;1377;-54
2021/10/08 01:32:29;;;;;;;10.52;7.38;;;;;;;6.57;94.19;102290.78;671789;29;1523;-53
2021/10/08 01:32:50;;;;;;;9.70;7.13;;;;;;;6.53;94.57;102299.28;673561;29;1281;-55
2021/10/08 01:33:13;;;;;;;10.43;7.30;;;;;;;6.53;94.67;102299.28;674769;29;1971;-53
2021/10/08 01:33:40;;;;;;;10.40;7.30;;;;;;;6.50;94.50;102297.44;671873;29;2050;-54
2021/10/08 01:34:01;;;;;;;9.77;6.97;;;;;;;6.50;94.25;102300.03;675241;29;4458;-55
2021/10/08 01:34:26;;;;;;;10.20;7.15;;;;;;;6.50;94.77;102296.56;678258;28;1486;-53
2021/10/08 01:34:50;;;;;;;10.38;7.10;;;;;;;6.48;94.99;102289.59;675422;29;1246;-56
2021/10/08 01:35:11;;;;;;;10.27;7.18;;;;;;;6.47;94.66;102297.34;676599;29;1659;-53
2021/10/08 01:35:34;;;;;;;11.43;7.32;;;;;;;6.40;94.88;102298.81;674918;29;1391;-55
2021/10/08 01:35:56;;;;;;;10.48;7.00;;;;;;;6.33;94.86;102290.69;674155;29;1367;-53
2021/10/08 01:36:17;;;;;;;10.80;7.63;;;;;;;6.30;95.43;102296.69;673234;29;1177;-56
2021/10/08 01:36:39;;;;;;;10.88;7.60;;;;;;;6.31;95.19;102295.84;674834;29;1347;-57
2021/10/08 01:37:02;;;;;;;10.23;7.60;;;;;;;6.26;95.56;102289.59;671858;29;4661;-56
2021/10/08 01:37:23;;;;;;;11.48;7.80;;;;;;;6.22;95.81;102293.78;673100;29;1519;-56
2021/10/08 01:37:45;;;;;;;11.00;7.75;;;;;;;6.17;95.73;102299.63;674046;29;1338;-57
2021/10/08 01:38:05;;;;;;;11.63;7.93;;;;;;;6.20;95.97;102290.22;675008;29;1272;-55
2021/10/08 01:38:27;;;;;;;11.55;7.75;;;;;;;6.25;96.03;102295.63;674702;29;1361;-53
2021/10/08 01:38:48;;;;;;;12.13;7.72;;;;;;;6.23;95.67;102295.56;673495;29;1385;-53
2021/10/08 01:39:09;;;;;;;11.50;7.82;;;;;;;6.23;95.74;102295.56;676396;28;3532;-53
2021/10/08 01:39:31;;;;;;;10.88;7.70;;;;;;;6.25;95.81;102295.63;676612;29;1276;-56
2021/10/08 01:39:54;;;;;;;10.15;7.28;;;;;;;6.27;95.68;102291.34;676033;28;4545;-54
2021/10/08 01:40:18;;;;;;;10.90;7.00;;;;;;;6.32;95.02;102295.03;683411;28;3500;-54
2021/10/08 01:40:43;;;;;;;10.00;7.20;;;;;;;6.44;94.84;102295.50;678082;28;1985;-57
2021/10/08 01:41:10;;;;;;;10.93;7.30;;;;;;;6.52;94.21;102302.69;676286;28;1588;-56
2021/10/08 01:41:30;;;;;;;10.47;7.10;;;;;;;6.55;94.57;102298.50;680863;28;1655;-57
2021/10/08 01:41:51;;;;;;;10.98;7.15;;;;;;;6.54;94.13;102296.72;675248;29;1293;-56
2021/10/08 01:42:16;;;;;;;9.95;6.80;;;;;;;6.56;93.69;102300.28;680294;28;1246;-52
2021/10/08 01:42:36;;;;;;;10.03;7.20;;;;;;;6.59;93.60;102295.22;680310;28;1406;-52
2021/10/08 01:42:59;;;;;;;10.65;7.40;;;;;;;6.57;93.63;102295.97;673820;28;4427;-53